createdAt,value
2023-05-19T00:01:00.474Z,102018.88
2023-05-19T00:03:28.212Z,102010.22
2023-05-19T00:05:57.107Z,102016.47
2023-05-19T00:08:24.759Z,102022.63
2023-05-19T00:10:52.190Z,102028.81
2023-05-19T00:13:19.534Z,102026.28
2023-05-19T00:15:46.960Z,102035.97
2023-05-19T00:18:14.483Z,102029.91
2023-05-19T00:20:41.720Z,102016.88
2023-05-19T00:23:08.953Z,102022.22
2023-05-19T00:25:36.127Z,102028.50
2023-05-19T00:28:03.557Z,102014.66
2023-05-19T00:30:31.633Z,102019.97
2023-05-19T00:32:58.879Z,102023.50
2023-05-19T00:35:26.081Z,102020.91
2023-05-19T00:37:53.615Z,102022.75
2023-05-19T00:40:21.219Z,102027.22
2023-05-19T00:42:48.446Z,102012.44
2023-05-19T00:45:15.578Z,102018.66
2023-05-19T00:47:42.923Z,102020.44
2023-05-19T00:50:10.447Z,102027.56
2023-05-19T00:52:37.663Z,102014.53
2023-05-19T00:55:05.633Z,102014.56
2023-05-19T00:57:32.802Z,102013.72
2023-05-19T01:00:00.919Z,102022.50
2023-05-19T01:02:29.763Z,102020.00
2023-05-19T01:04:57.421Z,102023.53
2023-05-19T01:11:43.024Z,102014.09
2023-05-19T01:14:10.352Z,102020.25
2023-05-19T01:16:42.737Z,102014.22
2023-05-19T01:19:41.150Z,102011.72
2023-05-19T01:22:14.318Z,102010.00
2023-05-19T01:24:47.356Z,102012.75
2023-05-19T01:27:23.711Z,102007.63
2023-05-19T01:29:50.861Z,102009.38
2023-05-19T01:32:19.896Z,102019.81
2023-05-19T01:34:49.724Z,102017.16
2023-05-19T01:37:17.472Z,102011.91
2023-05-19T01:39:45.704Z,102017.13
2023-05-19T01:42:13.409Z,102020.63
2023-05-19T01:44:40.671Z,102016.34
2023-05-19T01:47:34.231Z,102015.56
2023-05-19T01:50:01.483Z,102012.13
2023-05-19T01:52:28.682Z,102016.56
2023-05-19T01:54:56.064Z,102014.88
2023-05-19T01:58:05.644Z,102019.25
2023-05-19T02:00:59.507Z,102015.84
2023-05-19T02:03:32.862Z,102016.75
2023-05-19T02:06:31.270Z,102014.19
2023-05-19T02:09:04.551Z,102017.75
2023-05-19T02:11:40.579Z,102023.03
2023-05-19T02:14:16.330Z,102016.13
2023-05-19T02:20:25.054Z,102018.88
2023-05-19T02:22:52.326Z,102016.31
2023-05-19T02:25:19.518Z,102016.31
2023-05-19T02:27:46.984Z,102021.66
2023-05-19T02:30:14.239Z,102019.06
2023-05-19T02:32:41.503Z,102021.72
2023-05-19T02:35:09.116Z,102021.78
2023-05-19T02:37:36.346Z,102013.94
2023-05-19T02:40:04.309Z,102016.53
2023-05-19T02:42:31.773Z,102007.78
2023-05-19T02:45:00.454Z,102007.78
2023-05-19T02:47:27.739Z,102011.25
2023-05-19T02:49:55.081Z,102006.84
2023-05-19T02:52:22.364Z,102010.28
2023-05-19T02:54:49.586Z,102003.25
2023-05-19T02:57:16.984Z,102011.06
2023-05-19T02:59:44.469Z,102010.94
2023-05-19T03:02:11.877Z,102002.13
2023-05-19T03:04:42.044Z,102009.06
2023-05-19T03:07:10.291Z,102005.47
2023-05-19T03:09:37.873Z,102002.75
2023-05-19T03:12:07.218Z,102006.22
2023-05-19T03:14:37.752Z,101997.47
2023-05-19T03:17:08.388Z,101997.50
2023-05-19T03:19:36.141Z,101996.66
2023-05-19T03:22:03.450Z,101999.25
2023-05-19T03:24:30.864Z,101999.25
2023-05-19T03:26:58.114Z,102004.50
2023-05-19T03:29:25.405Z,102003.72
2023-05-19T03:31:52.618Z,102008.16
2023-05-19T03:34:19.818Z,102002.06
2023-05-19T03:36:48.997Z,101999.44
2023-05-19T03:39:16.857Z,102002.91
2023-05-19T03:41:44.083Z,102000.22
2023-05-19T03:44:11.319Z,101998.34
2023-05-19T03:46:38.530Z,102000.97
2023-05-19T03:49:05.744Z,102002.63
2023-05-19T03:51:34.861Z,102000.78
2023-05-19T03:54:02.243Z,101998.88
2023-05-19T03:56:29.905Z,102006.63
2023-05-19T03:58:57.072Z,102002.97
2023-05-19T04:01:24.414Z,102005.44
2023-05-19T04:03:51.638Z,102007.91
2023-05-19T04:06:19.111Z,102003.38
2023-05-19T04:08:46.387Z,101998.88
2023-05-19T04:11:13.689Z,101999.63
2023-05-19T04:13:40.955Z,102003.00
2023-05-19T04:16:08.279Z,102006.31
2023-05-19T04:18:35.600Z,102002.59
2023-05-19T04:21:02.968Z,101998.13
2023-05-19T04:23:30.129Z,102002.31
2023-05-19T04:25:59.014Z,102006.50
2023-05-19T04:28:26.240Z,102003.78
2023-05-19T04:30:53.631Z,102006.13
2023-05-19T04:33:21.457Z,102012.00
2023-05-19T04:35:50.317Z,102018.75
2023-05-19T04:38:18.994Z,102020.31
2023-05-19T04:40:46.407Z,102018.31
2023-05-19T04:43:13.703Z,102015.44
2023-05-19T04:45:42.639Z,102014.41
2023-05-19T04:48:09.925Z,102022.00
2023-05-19T04:50:38.583Z,102017.44
2023-05-19T04:53:05.821Z,102018.09
2023-05-19T04:55:33.099Z,102025.69
2023-05-19T04:58:00.367Z,102022.75
2023-05-19T05:00:28.459Z,102024.34
2023-05-19T05:02:57.682Z,102018.78
2023-05-19T05:05:25.013Z,102014.97
2023-05-19T05:07:54.195Z,102011.13
2023-05-19T05:10:21.884Z,102013.44
2023-05-19T05:12:49.600Z,102019.28
2023-05-19T05:15:17.391Z,102015.53
2023-05-19T05:17:45.181Z,102016.13
2023-05-19T05:20:13.119Z,102025.53
2023-05-19T05:22:40.934Z,102021.72
2023-05-19T05:25:08.965Z,102019.97
2023-05-19T05:27:36.625Z,102021.56
2023-05-19T05:30:04.930Z,102019.75
2023-05-19T05:32:32.317Z,102023.19
2023-05-19T05:34:59.690Z,102024.72
2023-05-19T05:37:26.965Z,102022.91
2023-05-19T05:39:54.163Z,102024.44
2023-05-19T05:42:21.424Z,102014.47
2023-05-19T05:44:48.645Z,102024.66
2023-05-19T05:47:16.103Z,102014.56
2023-05-19T05:49:43.971Z,102015.03
2023-05-19T05:52:12.694Z,102018.81
2023-05-19T05:54:40.199Z,102019.88
2023-05-19T05:57:07.909Z,102019.19
2023-05-19T05:59:35.147Z,102014.28
2023-05-19T06:02:02.658Z,102026.09
2023-05-19T06:04:30.017Z,102024.94
2023-05-19T06:07:01.022Z,102016.69
2023-05-19T06:09:29.852Z,102015.56
2023-05-19T06:11:58.377Z,102013.47
2023-05-19T06:14:25.704Z,102020.50
2023-05-19T06:16:53.234Z,102023.78
2023-05-19T06:19:21.261Z,102019.34
2023-05-19T06:21:48.621Z,102022.94
2023-05-19T06:24:15.846Z,102018.88
2023-05-19T06:26:43.066Z,102011.34
2023-05-19T06:29:10.411Z,102014.53
2023-05-19T06:31:37.672Z,102014.06
2023-05-19T06:34:05.254Z,102020.94
2023-05-19T06:36:33.206Z,102023.41
2023-05-19T06:39:02.598Z,102017.03
2023-05-19T06:41:30.269Z,102011.44
2023-05-19T06:43:57.511Z,102020.81
2023-05-19T06:46:24.771Z,102019.84
2023-05-19T06:48:52.033Z,102016.22
2023-05-19T06:51:21.769Z,102016.97
2023-05-19T06:53:49.336Z,102021.19
2023-05-19T06:56:16.723Z,102020.03
2023-05-19T06:58:44.139Z,102018.72
2023-05-19T07:01:11.423Z,102018.34
2023-05-19T07:03:38.753Z,102020.50
2023-05-19T07:06:08.102Z,102018.25
2023-05-19T07:08:37.144Z,102016.19
2023-05-19T07:11:04.543Z,102018.00
2023-05-19T07:13:32.931Z,102015.97
2023-05-19T07:16:00.277Z,102022.53
2023-05-19T07:18:29.980Z,102016.56
2023-05-19T07:20:58.353Z,102023.88
2023-05-19T07:23:25.665Z,102015.72
2023-05-19T07:25:56.503Z,102017.28
2023-05-19T07:28:23.801Z,102013.59
2023-05-19T07:30:51.920Z,102019.75
2023-05-19T07:33:19.116Z,102020.78
2023-05-19T07:35:46.437Z,102023.09
2023-05-19T07:38:13.777Z,102016.16
2023-05-19T07:40:41.059Z,102012.19
2023-05-19T07:43:08.320Z,102013.47
2023-05-19T07:45:35.523Z,102014.59
2023-05-19T07:48:03.105Z,102005.50
2023-05-19T07:50:30.441Z,102009.09
2023-05-19T07:52:57.748Z,101997.53
2023-05-19T07:55:24.920Z,102007.31
2023-05-19T07:57:52.144Z,102008.97
2023-05-19T08:00:19.550Z,102009.53
2023-05-19T08:02:47.329Z,102014.81
2023-05-19T08:05:14.985Z,102005.41
2023-05-19T08:07:42.298Z,102004.78
2023-05-19T08:10:09.525Z,102009.41
2023-05-19T08:12:36.834Z,102009.81
2023-05-19T08:15:04.485Z,102004.41
2023-05-19T08:17:31.716Z,101999.69
2023-05-19T08:20:00.358Z,102007.69
2023-05-19T08:22:28.156Z,102011.00
2023-05-19T08:24:55.569Z,102012.94
2023-05-19T08:27:22.836Z,102019.44
2023-05-19T08:29:49.990Z,102018.88
2023-05-19T08:32:17.529Z,102006.59
2023-05-19T08:34:44.724Z,102011.75
2023-05-19T08:37:12.302Z,102008.84
2023-05-19T08:39:39.643Z,102006.59
2023-05-19T08:42:08.160Z,102005.75
2023-05-19T08:44:36.512Z,102008.34
2023-05-19T08:47:12.614Z,102006.22
2023-05-19T08:49:47.194Z,102007.72
2023-05-19T08:52:17.336Z,101999.63
2023-05-19T08:55:06.165Z,102009.72
2023-05-19T08:57:34.222Z,101999.19
2023-05-19T09:00:03.161Z,101998.47
2023-05-19T09:02:30.920Z,102001.03
2023-05-19T09:04:58.522Z,102000.44
2023-05-19T09:07:26.320Z,101993.31
2023-05-19T09:09:53.631Z,101985.06
2023-05-19T09:12:21.102Z,101990.22
2023-05-19T09:14:48.700Z,101978.78
2023-05-19T09:17:16.072Z,101975.59
2023-05-19T09:19:44.395Z,101973.19
2023-05-19T09:22:11.692Z,101973.31
2023-05-19T09:24:40.390Z,101975.88
2023-05-19T09:27:07.937Z,101975.94
2023-05-19T09:29:35.208Z,101964.91
2023-05-19T09:32:05.177Z,101959.16
2023-05-19T09:34:32.471Z,101954.63
2023-05-19T09:36:59.919Z,101959.91
2023-05-19T09:39:28.770Z,101958.63
2023-05-19T09:41:58.493Z,101946.72
2023-05-19T09:44:30.440Z,101956.56
2023-05-19T09:46:58.528Z,101953.91
2023-05-19T09:49:31.237Z,101959.16
2023-05-19T09:52:00.320Z,101954.47
2023-05-19T09:54:28.448Z,101956.72
2023-05-19T09:57:03.785Z,101953.59
2023-05-19T09:59:33.326Z,101957.38
2023-05-19T10:02:01.564Z,101957.84
2023-05-19T10:04:29.784Z,101953.03
2023-05-19T10:07:01.363Z,101946.88
2023-05-19T10:09:29.946Z,101942.19
2023-05-19T10:11:58.777Z,101934.72
2023-05-19T10:14:27.400Z,101930.06
2023-05-19T10:16:56.386Z,101917.75
2023-05-19T10:19:25.444Z,101921.19
2023-05-19T10:21:53.379Z,101928.97
2023-05-19T10:24:21.396Z,101918.53
2023-05-19T10:26:56.923Z,101943.97
2023-05-19T10:29:29.084Z,101929.66
2023-05-19T10:32:01.100Z,101932.75
2023-05-19T10:34:50.534Z,101933.13
2023-05-19T10:37:31.276Z,101947.56
2023-05-19T10:39:58.921Z,101942.06
2023-05-19T10:42:44.186Z,101931.44
2023-05-19T10:45:22.685Z,101925.94
2023-05-19T10:47:51.466Z,101931.81
2023-05-19T10:50:18.850Z,101925.56
2023-05-19T10:52:53.255Z,101925.06
2023-05-19T10:55:47.664Z,101927.00
2023-05-19T10:58:14.885Z,101914.03
2023-05-19T11:00:42.083Z,101918.84
2023-05-19T11:03:59.416Z,101915.59
2023-05-19T11:06:27.440Z,101907.78
2023-05-19T11:09:00.915Z,101909.34
2023-05-19T11:11:48.239Z,101908.50
2023-05-19T11:14:20.606Z,101905.81
2023-05-19T11:16:49.456Z,101912.88
2023-05-19T11:23:38.767Z,101909.63
2023-05-19T11:26:07.972Z,101909.91
2023-05-19T11:28:36.605Z,101910.00
2023-05-19T11:31:08.051Z,101895.16
2023-05-19T11:33:35.742Z,101899.50
2023-05-19T11:36:03.051Z,101891.94
2023-05-19T11:38:30.449Z,101896.97
2023-05-19T11:40:57.841Z,101892.66
2023-05-19T11:43:26.232Z,101908.06
2023-05-19T11:45:54.577Z,101896.47
2023-05-19T11:48:22.533Z,101892.53
2023-05-19T11:50:50.913Z,101893.66
2023-05-19T11:53:19.718Z,101891.09
2023-05-19T11:55:48.526Z,101893.75
2023-05-19T11:58:16.649Z,101890.69
2023-05-19T12:00:46.221Z,101890.69
2023-05-19T12:03:13.835Z,101898.38
2023-05-19T12:05:47.165Z,101888.78
2023-05-19T12:08:14.993Z,101885.97
2023-05-19T12:10:42.383Z,101891.94
2023-05-19T12:13:10.173Z,101896.63
2023-05-19T12:15:38.817Z,101897.75
2023-05-19T12:18:06.662Z,101892.22
2023-05-19T12:20:36.206Z,101890.84
2023-05-19T12:23:04.229Z,101881.34
2023-05-19T12:25:32.168Z,101886.56
2023-05-19T12:28:00.911Z,101882.72
2023-05-19T12:30:29.430Z,101875.94
2023-05-19T12:32:57.891Z,101885.44
2023-05-19T12:35:34.695Z,101875.66
2023-05-19T12:38:06.224Z,101870.75
2023-05-19T12:40:37.943Z,101867.72
2023-05-19T12:43:06.648Z,101874.94
2023-05-19T12:45:38.273Z,101869.91
2023-05-19T12:48:06.907Z,101865.16
2023-05-19T12:50:34.885Z,101859.53
2023-05-19T12:53:02.360Z,101865.53
2023-05-19T12:55:30.080Z,101867.13
2023-05-19T12:57:58.108Z,101858.28
2023-05-19T13:00:28.431Z,101868.97
2023-05-19T13:03:08.801Z,101864.19
2023-05-19T13:05:40.373Z,101854.16
2023-05-19T13:08:09.977Z,101847.81
2023-05-19T13:10:38.827Z,101861.03
2023-05-19T13:13:07.353Z,101855.69
2023-05-19T13:15:37.716Z,101858.84
2023-05-19T13:18:07.283Z,101856.84
2023-05-19T13:20:35.892Z,101864.91
2023-05-19T13:23:03.737Z,101857.03
2023-05-19T13:25:31.086Z,101858.38
2023-05-19T13:28:01.164Z,101850.59
2023-05-19T13:30:28.473Z,101853.19
2023-05-19T13:32:55.853Z,101855.50
2023-05-19T13:35:23.238Z,101855.03
2023-05-19T13:37:50.920Z,101851.50
2023-05-19T13:40:18.901Z,101848.06
2023-05-19T13:42:46.456Z,101850.84
2023-05-19T13:45:13.818Z,101847.81
2023-05-19T13:47:41.154Z,101857.66
2023-05-19T13:50:08.614Z,101856.56
2023-05-19T13:52:35.889Z,101854.66
2023-05-19T13:55:03.717Z,101851.53
2023-05-19T13:57:30.916Z,101845.78
2023-05-19T14:00:03.174Z,101859.28
2023-05-19T14:02:31.280Z,101858.97
2023-05-19T14:04:58.674Z,101854.72
2023-05-19T14:07:26.009Z,101860.22
2023-05-19T14:09:53.361Z,101858.69
2023-05-19T14:12:27.841Z,101862.22
2023-05-19T14:14:58.872Z,101854.22
2023-05-19T14:17:27.510Z,101852.75
2023-05-19T14:19:54.792Z,101850.44
2023-05-19T14:22:22.009Z,101851.22
2023-05-19T14:24:49.280Z,101865.47
2023-05-19T14:27:16.683Z,101852.53
2023-05-19T14:29:44.232Z,101857.09
2023-05-19T14:32:11.643Z,101857.19
2023-05-19T14:34:38.819Z,101863.81
2023-05-19T14:37:06.107Z,101866.16
2023-05-19T14:39:33.312Z,101866.88
2023-05-19T14:42:00.880Z,101863.41
2023-05-19T14:44:32.994Z,101861.31
2023-05-19T14:47:01.725Z,101872.47
2023-05-19T14:49:28.982Z,101868.06
2023-05-19T14:51:56.312Z,101859.09
2023-05-19T14:54:23.783Z,101868.41
2023-05-19T14:56:51.046Z,101865.81
2023-05-19T14:59:18.346Z,101864.81
2023-05-19T15:01:45.793Z,101867.19
2023-05-19T15:04:13.304Z,101875.75
2023-05-19T15:06:41.055Z,101861.97
2023-05-19T15:09:08.275Z,101863.41
2023-05-19T15:11:35.504Z,101867.06
2023-05-19T15:14:02.726Z,101875.63
2023-05-19T15:16:30.282Z,101866.38
2023-05-19T15:18:57.771Z,101871.81
2023-05-19T15:21:25.000Z,101870.00
2023-05-19T15:23:52.234Z,101859.41
2023-05-19T15:26:19.511Z,101866.00
2023-05-19T15:28:46.786Z,101870.38
2023-05-19T15:31:14.145Z,101868.69
2023-05-19T15:33:41.584Z,101864.69
2023-05-19T15:36:08.858Z,101868.34
2023-05-19T15:38:36.733Z,101868.00
2023-05-19T15:41:08.105Z,101866.78
2023-05-19T15:43:35.394Z,101869.25
2023-05-19T15:46:04.833Z,101871.78
2023-05-19T15:48:32.398Z,101863.56
2023-05-19T15:50:59.802Z,101852.75
2023-05-19T15:53:27.085Z,101854.31
2023-05-19T15:55:54.523Z,101851.91
2023-05-19T15:58:21.757Z,101854.78
2023-05-19T16:00:48.979Z,101852.38
2023-05-19T16:03:16.317Z,101852.34
2023-05-19T16:05:43.661Z,101847.47
2023-05-19T16:08:10.969Z,101852.19
2023-05-19T16:10:38.187Z,101844.91
2023-05-19T16:13:05.501Z,101843.16
2023-05-19T16:15:32.738Z,101840.19
2023-05-19T16:18:00.166Z,101838.34
2023-05-19T16:20:29.660Z,101838.00
2023-05-19T16:22:57.159Z,101826.31
2023-05-19T16:25:24.485Z,101835.53
2023-05-19T16:27:52.442Z,101836.00
2023-05-19T16:30:19.807Z,101835.03
2023-05-19T16:32:47.134Z,101833.72
2023-05-19T16:35:14.698Z,101832.81
2023-05-19T16:37:41.851Z,101829.41
2023-05-19T16:40:09.446Z,101836.63
2023-05-19T16:42:36.674Z,101824.13
2023-05-19T16:45:04.238Z,101827.59
2023-05-19T16:47:31.565Z,101839.38
2023-05-19T16:49:58.909Z,101833.84
2023-05-19T16:52:26.212Z,101836.31
2023-05-19T16:54:53.467Z,101839.03
2023-05-19T16:57:21.027Z,101832.78
2023-05-19T16:59:49.578Z,101828.25
2023-05-19T17:02:16.894Z,101825.97
2023-05-19T17:04:44.436Z,101825.97
2023-05-19T17:07:15.750Z,101835.81
2023-05-19T17:09:44.048Z,101832.13
2023-05-19T17:12:11.274Z,101829.78
2023-05-19T17:14:38.561Z,101840.44
2023-05-19T17:17:06.026Z,101829.84
2023-05-19T17:19:33.543Z,101829.16
2023-05-19T17:22:00.987Z,101832.63
2023-05-19T17:24:33.181Z,101840.59
2023-05-19T17:27:00.744Z,101831.44
2023-05-19T17:29:28.031Z,101826.44
2023-05-19T17:31:55.456Z,101831.78
2023-05-19T17:34:22.950Z,101826.66
2023-05-19T17:36:50.321Z,101831.81
2023-05-19T17:39:20.040Z,101830.53
2023-05-19T17:41:47.330Z,101825.97
2023-05-19T17:44:15.063Z,101832.50
2023-05-19T17:46:42.363Z,101834.84
2023-05-19T17:49:10.773Z,101842.75
2023-05-19T17:51:38.518Z,101847.56
2023-05-19T17:54:06.018Z,101855.03
2023-05-19T17:56:34.287Z,101843.84
2023-05-19T17:59:01.807Z,101855.63
2023-05-19T18:01:29.293Z,101850.09
2023-05-19T18:03:56.811Z,101854.84
2023-05-19T18:06:24.353Z,101849.59
2023-05-19T18:08:53.302Z,101844.16
2023-05-19T18:11:21.482Z,101845.09
2023-05-19T18:14:12.483Z,101839.75
2023-05-19T18:16:49.957Z,101840.34
2023-05-19T18:19:17.595Z,101837.47
2023-05-19T18:21:44.817Z,101842.53
2023-05-19T18:24:12.052Z,101846.44
2023-05-19T18:26:41.851Z,101846.81
2023-05-19T18:29:10.192Z,101848.81
2023-05-19T18:31:37.843Z,101843.91
2023-05-19T18:34:05.145Z,101847.44
2023-05-19T18:36:32.609Z,101850.97
2023-05-19T18:39:00.192Z,101856.66
2023-05-19T18:41:27.946Z,101854.50
2023-05-19T18:43:55.245Z,101857.66
2023-05-19T18:46:22.499Z,101856.41
2023-05-19T18:48:52.990Z,101865.81
2023-05-19T18:51:21.329Z,101868.06
2023-05-19T18:53:51.372Z,101863.25
2023-05-19T18:56:25.125Z,101875.34
2023-05-19T18:58:53.016Z,101868.75
2023-05-19T19:01:20.298Z,101871.91
2023-05-19T19:07:47.607Z,101868.81
2023-05-19T19:10:15.234Z,101869.16
2023-05-19T19:12:42.552Z,101864.31
2023-05-19T19:15:10.360Z,101864.75
2023-05-19T19:17:39.823Z,101867.66
2023-05-19T19:20:09.375Z,101869.72
2023-05-19T19:22:36.831Z,101869.03
2023-05-19T19:25:04.287Z,101878.22
2023-05-19T19:27:31.686Z,101874.97
2023-05-19T19:29:59.199Z,101872.75
2023-05-19T19:32:26.428Z,101873.84
2023-05-19T19:34:53.734Z,101883.78
2023-05-19T19:37:21.071Z,101873.63
2023-05-19T19:39:48.292Z,101889.59
2023-05-19T19:42:15.527Z,101876.59
2023-05-19T19:44:42.786Z,101882.09
2023-05-19T19:47:10.261Z,101876.13
2023-05-19T19:49:37.490Z,101873.72
2023-05-19T19:52:05.126Z,101876.47
2023-05-19T19:54:32.619Z,101872.28
2023-05-19T19:56:59.857Z,101871.59
2023-05-19T19:59:27.076Z,101875.28
2023-05-19T20:01:54.386Z,101883.47
2023-05-19T20:04:21.827Z,101876.53
2023-05-19T20:06:49.786Z,101874.94
2023-05-19T20:09:17.096Z,101882.16
2023-05-19T20:11:44.418Z,101887.63
2023-05-19T20:14:11.714Z,101878.06
2023-05-19T20:16:40.593Z,101882.66
2023-05-19T20:19:09.396Z,101880.03
2023-05-19T20:21:36.810Z,101887.25
2023-05-19T20:24:56.433Z,101892.66
2023-05-19T20:27:23.810Z,101895.44
2023-05-19T20:29:51.093Z,101891.34
2023-05-19T20:32:18.370Z,101898.59
2023-05-19T20:34:45.753Z,101900.47
2023-05-19T20:37:13.879Z,101903.19
2023-05-19T20:39:41.209Z,101907.72
2023-05-19T20:42:08.680Z,101910.50
2023-05-19T20:44:35.941Z,101910.75
2023-05-19T20:47:04.261Z,101907.34
2023-05-19T20:49:31.508Z,101912.63
2023-05-19T20:51:58.765Z,101912.78
2023-05-19T20:54:26.138Z,101918.31
2023-05-19T20:56:53.345Z,101909.75
2023-05-19T20:59:20.823Z,101913.41
2023-05-19T21:01:48.187Z,101917.13
2023-05-19T21:04:15.715Z,101913.00
2023-05-19T21:06:43.040Z,101910.47
2023-05-19T21:09:10.751Z,101904.47
2023-05-19T21:11:38.083Z,101900.16
2023-05-19T21:14:08.187Z,101904.69
2023-05-19T21:16:38.755Z,101904.84
2023-05-19T21:19:06.865Z,101911.16
2023-05-19T21:21:34.349Z,101909.66
2023-05-19T21:24:01.582Z,101915.09
2023-05-19T21:26:28.818Z,101916.16
2023-05-19T21:28:56.017Z,101919.78
2023-05-19T21:31:23.308Z,101910.28
2023-05-19T21:33:50.664Z,101922.75
2023-05-19T21:36:18.414Z,101918.63
2023-05-19T21:38:46.108Z,101927.53
2023-05-19T21:41:13.355Z,101922.41
2023-05-19T21:43:42.019Z,101927.00
2023-05-19T21:46:09.284Z,101932.44
2023-05-19T21:48:36.569Z,101933.59
2023-05-19T21:51:03.899Z,101934.56
2023-05-19T21:53:32.580Z,101939.13
2023-05-19T21:55:59.988Z,101926.00
2023-05-19T21:58:27.268Z,101929.72
2023-05-19T22:00:54.579Z,101926.31
2023-05-19T22:03:21.941Z,101930.78
2023-05-19T22:05:53.973Z,101928.28
2023-05-19T22:08:22.438Z,101935.53
2023-05-19T22:10:53.387Z,101933.09
2023-05-19T22:13:21.206Z,101930.50
2023-05-19T22:15:48.566Z,101933.38
2023-05-19T22:18:16.863Z,101935.28
2023-05-19T22:20:44.097Z,101930.16
2023-05-19T22:23:11.442Z,101932.09
2023-05-19T22:25:38.901Z,101927.78
2023-05-19T22:28:07.956Z,101932.38
2023-05-19T22:30:41.119Z,101936.81
2023-05-19T22:33:09.462Z,101931.56
2023-05-19T22:35:36.712Z,101938.72
2023-05-19T22:38:03.881Z,101930.94
2023-05-19T22:40:32.625Z,101939.06
2023-05-19T22:43:00.051Z,101933.84
2023-05-19T22:45:27.282Z,101941.03
2023-05-19T22:47:55.230Z,101947.47
2023-05-19T22:50:22.862Z,101944.94
2023-05-19T22:52:50.143Z,101941.59
2023-05-19T22:55:17.420Z,101945.25
2023-05-19T22:57:44.620Z,101947.06
2023-05-19T23:00:14.307Z,101948.06
2023-05-19T23:02:41.893Z,101950.00
2023-05-19T23:05:09.300Z,101948.31
2023-05-19T23:07:36.642Z,101947.66
2023-05-19T23:10:05.990Z,101946.94
2023-05-19T23:12:33.458Z,101945.31
2023-05-19T23:15:01.096Z,101951.56
2023-05-19T23:17:28.446Z,101948.06
2023-05-19T23:19:55.913Z,101941.13
2023-05-19T23:22:23.327Z,101943.81
2023-05-19T23:24:50.544Z,101939.53
2023-05-19T23:27:17.766Z,101943.28
2023-05-19T23:29:49.198Z,101934.59
2023-05-19T23:32:16.624Z,101942.56
2023-05-19T23:34:43.913Z,101943.53
2023-05-19T23:37:11.749Z,101941.88
2023-05-19T23:39:38.934Z,101935.06
2023-05-19T23:42:06.616Z,101935.16
2023-05-19T23:44:33.827Z,101935.28
2023-05-19T23:47:01.259Z,101936.22
2023-05-19T23:49:28.621Z,101931.91
2023-05-19T23:51:55.884Z,101935.56
2023-05-19T23:54:23.124Z,101934.91
2023-05-19T23:56:50.409Z,101938.56
2023-05-19T23:59:17.679Z,101937.91
